Time;durP1;ratioP1;P1;durP2;ratioP2;P2;SDS_P1;SDS_P2;PMS_P1;PMS_P2;Temp;Humidity;BMP_temperature;BMP_pressure;BME280_temperature;BME280_humidity;BME280_pressure;Samples;Min_cycle;Max_cycle;Signal;HPM_P1;HPM_P2
2023/05/27 00:01:21;;;;;;;5.75;4.65;;;21.20;51.20;;;;;;4982751;28;20271;-77
2023/05/27 00:03:48;;;;;;;5.10;4.50;;;21.20;51.20;;;;;;4998725;28;20197;-77
2023/05/27 00:06:16;;;;;;;5.20;4.30;;;21.20;51.20;;;;;;4998610;28;20197;-77
2023/05/27 00:08:43;;;;;;;4.88;3.95;;;21.20;51.20;;;;;;4998597;28;20732;-77
2023/05/27 00:11:11;;;;;;;5.28;3.92;;;21.20;51.20;;;;;;4998980;28;20251;-77
2023/05/27 00:13:38;;;;;;;5.07;4.47;;;21.20;51.20;;;;;;4998652;28;20211;-77
2023/05/27 00:16:06;;;;;;;4.90;4.03;;;21.10;51.10;;;;;;4998890;28;20197;-77
2023/05/27 00:18:33;;;;;;;5.75;4.30;;;21.10;51.20;;;;;;4998722;28;20231;-77
2023/05/27 00:21:00;;;;;;;6.05;4.30;;;21.20;51.20;;;;;;4999125;28;20205;-77
2023/05/27 00:23:28;;;;;;;6.38;4.45;;;21.10;51.00;;;;;;4998582;28;20251;-77
2023/05/27 00:25:55;;;;;;;5.22;4.40;;;21.10;51.10;;;;;;4999300;28;20197;-77
2023/05/27 00:28:23;;;;;;;5.82;4.22;;;21.10;51.10;;;;;;4998655;28;20682;-77
2023/05/27 00:30:50;;;;;;;5.55;4.20;;;21.10;51.20;;;;;;4999004;28;20217;-77
2023/05/27 00:33:17;;;;;;;5.68;4.32;;;21.10;51.00;;;;;;4999444;28;20205;-77
2023/05/27 00:35:44;;;;;;;7.25;4.20;;;21.10;50.90;;;;;;5002383;28;20208;-77
2023/05/27 00:38:12;;;;;;;5.15;3.80;;;21.10;51.10;;;;;;5004012;28;20211;-77
2023/05/27 00:40:39;;;;;;;5.38;4.13;;;21.10;51.00;;;;;;5004189;28;20216;-77
2023/05/27 00:43:07;;;;;;;4.68;4.03;;;21.00;50.90;;;;;;5000199;28;20216;-77
2023/05/27 00:45:35;;;;;;;5.30;4.20;;;21.00;51.00;;;;;;5019383;28;20184;-77
2023/05/27 00:48:03;;;;;;;6.45;4.50;;;21.00;51.00;;;;;;4999387;28;20247;-77
2023/05/27 00:50:30;;;;;;;5.60;4.25;;;21.00;51.00;;;;;;4998880;28;20224;-77
2023/05/27 00:52:58;;;;;;;4.95;4.07;;;21.00;51.00;;;;;;4998806;28;20248;-77
2023/05/27 00:55:25;;;;;;;6.45;4.07;;;21.00;51.30;;;;;;4999759;28;20267;-77
2023/05/27 00:57:54;;;;;;;4.72;3.70;;;21.00;51.00;;;;;;4998982;28;20200;-76
2023/05/27 01:00:21;;;;;;;5.45;4.38;;;21.00;51.00;;;;;;4999744;28;20512;-77
2023/05/27 01:02:50;;;;;;;5.82;3.90;;;21.00;51.30;;;;;;4998759;28;20597;-77
2023/05/27 01:05:17;;;;;;;5.50;4.22;;;20.90;51.20;;;;;;4998421;28;20201;-77
2023/05/27 01:07:52;;;;;;;4.65;3.92;;;20.90;51.30;;;;;;4998188;28;20205;-77
2023/05/27 01:10:23;;;;;;;5.32;3.90;;;20.90;51.10;;;;;;4997773;28;20232;-77
2023/05/27 01:12:54;;;;;;;4.88;4.07;;;20.90;50.90;;;;;;4998065;28;20286;-77
2023/05/27 01:15:21;;;;;;;5.60;4.00;;;20.90;51.20;;;;;;4997920;28;20197;-77
2023/05/27 01:17:50;;;;;;;4.30;3.75;;;20.90;51.20;;;;;;4997771;28;20201;-77
2023/05/27 01:20:17;;;;;;;4.32;3.75;;;20.90;51.50;;;;;;4997975;28;20205;-77
2023/05/27 01:22:47;;;;;;;5.88;3.92;;;20.90;51.70;;;;;;4997454;28;20240;-77
2023/05/27 01:25:14;;;;;;;4.90;4.03;;;20.90;51.00;;;;;;4997488;28;20205;-77
2023/05/27 01:27:42;;;;;;;4.32;3.92;;;20.80;51.80;;;;;;4997481;28;20204;-77
2023/05/27 01:30:10;;;;;;;5.32;3.85;;;20.80;51.20;;;;;;4997257;28;20221;-77
2023/05/27 01:32:40;;;;;;;6.10;3.90;;;20.80;51.00;;;;;;4997175;28;20228;-77
2023/05/27 01:35:09;;;;;;;4.45;3.88;;;20.80;51.20;;;;;;4997167;28;20663;-77
2023/05/27 01:37:42;;;;;;;5.65;3.95;;;20.80;51.30;;;;;;4997268;28;20212;-77
2023/05/27 01:40:11;;;;;;;4.13;3.67;;;20.70;51.00;;;;;;4997108;28;20219;-77
2023/05/27 01:42:39;;;;;;;4.35;3.65;;;20.80;51.40;;;;;;4996726;28;20220;-77
2023/05/27 01:45:08;;;;;;;5.45;4.13;;;20.80;51.50;;;;;;4996823;28;20197;-77
2023/05/27 01:47:37;;;;;;;4.72;3.80;;;20.70;51.40;;;;;;4997141;28;20232;-77
2023/05/27 01:50:04;;;;;;;6.57;3.72;;;20.70;51.30;;;;;;4996856;28;20663;-77
2023/05/27 01:52:32;;;;;;;5.18;3.88;;;20.70;51.30;;;;;;4996506;28;20231;-78
2023/05/27 01:54:59;;;;;;;5.68;3.90;;;20.70;51.50;;;;;;4996761;28;20247;-78
2023/05/27 01:57:27;;;;;;;5.03;3.88;;;20.70;51.50;;;;;;4996966;28;20250;-78
2023/05/27 01:59:55;;;;;;;5.57;3.92;;;20.70;51.20;;;;;;5014264;28;20193;-78
2023/05/27 02:02:23;;;;;;;4.32;3.60;;;20.60;51.30;;;;;;4981010;28;20220;-78
2023/05/27 02:04:50;;;;;;;4.82;3.58;;;20.70;51.50;;;;;;4997360;28;20224;-78
2023/05/27 02:07:18;;;;;;;5.43;3.88;;;20.60;51.30;;;;;;4996703;28;20396;-78
2023/05/27 02:09:48;;;;;;;4.85;3.72;;;20.60;51.30;;;;;;4996540;28;20244;-78
2023/05/27 02:12:16;;;;;;;5.47;3.88;;;20.60;51.60;;;;;;4996394;28;20221;-77
2023/05/27 02:14:44;;;;;;;4.88;3.70;;;20.60;51.30;;;;;;5014258;28;20271;-77
2023/05/27 02:17:14;;;;;;;4.88;3.72;;;20.60;51.30;;;;;;4997659;28;20212;-77
2023/05/27 02:19:41;;;;;;;4.70;3.80;;;20.60;51.20;;;;;;4996576;28;20270;-77
2023/05/27 02:22:11;;;;;;;3.90;3.47;;;20.60;51.70;;;;;;4996728;28;20247;-77
2023/05/27 02:24:37;;;;;;;4.20;3.75;;;20.60;51.40;;;;;;5014607;28;20188;-77
2023/05/27 02:27:05;;;;;;;5.18;3.78;;;20.60;51.60;;;;;;4996832;28;20201;-77
2023/05/27 02:29:32;;;;;;;4.53;3.40;;;20.50;51.30;;;;;;4997534;28;20192;-77
2023/05/27 02:32:01;;;;;;;4.22;3.50;;;20.50;51.30;;;;;;4997862;28;20235;-77
2023/05/27 02:34:28;;;;;;;4.00;3.60;;;20.50;51.30;;;;;;4996880;28;20307;-77
2023/05/27 02:36:55;;;;;;;5.00;3.55;;;20.50;51.30;;;;;;4980946;28;20220;-77
2023/05/27 02:39:22;;;;;;;5.05;3.70;;;20.50;51.20;;;;;;4996643;28;20208;-77
2023/05/27 02:41:51;;;;;;;5.57;4.00;;;20.50;51.40;;;;;;4996453;28;20216;-77
2023/05/27 02:44:18;;;;;;;5.22;4.00;;;20.50;51.30;;;;;;4996359;28;20667;-77
2023/05/27 02:46:45;;;;;;;3.80;3.40;;;20.40;51.30;;;;;;4996107;28;20200;-77
2023/05/27 02:49:14;;;;;;;5.38;3.67;;;20.40;51.30;;;;;;5014142;28;20179;-77
2023/05/27 02:51:41;;;;;;;4.50;3.70;;;20.40;51.40;;;;;;5013671;28;20252;-77
2023/05/27 02:54:08;;;;;;;5.30;3.80;;;20.40;51.40;;;;;;4996262;28;20212;-77
2023/05/27 02:56:36;;;;;;;5.10;3.90;;;20.40;51.50;;;;;;4996101;28;20208;-78
2023/05/27 02:59:03;;;;;;;5.05;3.55;;;20.40;51.70;;;;;;4995723;28;20569;-77
2023/05/27 03:01:30;;;;;;;5.47;3.67;;;20.40;51.60;;;;;;4995887;28;20217;-77
2023/05/27 03:03:58;;;;;;;5.15;3.65;;;20.40;51.60;;;;;;4996579;28;20677;-78
2023/05/27 03:06:26;;;;;;;4.07;3.63;;;20.40;51.70;;;;;;4999190;28;20228;-78
2023/05/27 03:08:53;;;;;;;6.78;3.75;;;20.30;51.40;;;;;;5000684;28;20201;-78
2023/05/27 03:11:21;;;;;;;5.32;3.72;;;20.30;51.70;;;;;;4999341;28;20240;-78
2023/05/27 03:13:48;;;;;;;4.38;3.63;;;20.30;52.40;;;;;;5000409;28;20200;-78
2023/05/27 03:16:15;;;;;;;3.67;3.33;;;20.30;52.00;;;;;;4999529;28;20231;-78
2023/05/27 03:18:42;;;;;;;5.13;3.63;;;20.30;52.00;;;;;;4999662;28;20291;-78
2023/05/27 03:21:09;;;;;;;5.15;3.45;;;20.40;52.10;;;;;;5000094;28;20629;-78
2023/05/27 03:23:38;;;;;;;5.55;3.67;;;20.40;52.50;;;;;;4999296;28;20336;-78
2023/05/27 03:26:05;;;;;;;5.35;3.70;;;20.40;52.20;;;;;;4999269;28;20200;-78
2023/05/27 03:28:32;;;;;;;5.07;3.55;;;20.40;52.50;;;;;;5000247;28;20193;-78
2023/05/27 03:31:00;;;;;;;4.90;3.53;;;20.40;52.30;;;;;;4999261;28;20217;-78
2023/05/27 03:33:40;;;;;;;4.60;3.40;;;20.50;52.20;;;;;;4999966;28;20574;-77
2023/05/27 03:36:08;;;;;;;4.85;3.72;;;20.50;52.10;;;;;;4999248;28;20193;-77
2023/05/27 03:38:35;;;;;;;6.10;3.45;;;20.50;51.90;;;;;;4999512;28;20197;-76
2023/05/27 03:41:03;;;;;;;5.03;3.58;;;20.60;51.80;;;;;;4999248;28;20208;-76
2023/05/27 03:43:31;;;;;;;3.70;3.40;;;20.60;51.70;;;;;;4998866;28;20204;-76
2023/05/27 03:45:57;;;;;;;6.50;3.63;;;20.60;51.70;;;;;;5000170;28;20189;-77
2023/05/27 03:48:25;;;;;;;4.40;3.22;;;20.60;51.20;;;;;;4999022;28;20205;-77
2023/05/27 03:50:53;;;;;;;5.65;3.80;;;20.60;51.20;;;;;;4984575;28;20221;-77
2023/05/27 03:53:20;;;;;;;6.60;3.60;;;20.60;51.10;;;;;;5004208;28;20298;-77
2023/05/27 03:55:47;;;;;;;4.05;3.50;;;20.60;51.30;;;;;;5000682;28;20266;-76
2023/05/27 03:58:17;;;;;;;4.85;3.67;;;20.60;51.30;;;;;;4998949;28;20291;-77
2023/05/27 04:00:44;;;;;;;4.78;3.08;;;20.60;51.00;;;;;;4998670;28;20197;-77
2023/05/27 04:03:12;;;;;;;4.50;3.17;;;20.60;51.20;;;;;;4998497;28;20219;-77
2023/05/27 04:05:39;;;;;;;4.68;3.28;;;20.60;51.40;;;;;;4998477;28;20606;-77
2023/05/27 04:08:06;;;;;;;4.65;3.10;;;20.60;51.40;;;;;;5016097;28;20213;-77
2023/05/27 04:10:33;;;;;;;5.05;3.70;;;20.60;51.20;;;;;;4982205;28;20223;-77
2023/05/27 04:13:01;;;;;;;4.22;3.10;;;20.60;51.30;;;;;;4998470;28;20220;-77
2023/05/27 04:15:29;;;;;;;5.85;3.63;;;20.60;51.20;;;;;;4998733;28;20207;-77
2023/05/27 04:17:56;;;;;;;5.85;3.40;;;20.60;51.20;;;;;;4983992;28;20531;-76
2023/05/27 04:20:23;;;;;;;4.68;3.60;;;20.60;51.20;;;;;;4998709;28;20255;-76
2023/05/27 04:22:54;;;;;;;5.88;3.28;;;20.70;51.10;;;;;;4998464;28;20699;-76
2023/05/27 04:25:23;;;;;;;4.53;3.38;;;20.60;51.00;;;;;;4998466;28;20287;-76
2023/05/27 04:28:03;;;;;;;4.03;3.40;;;20.60;51.00;;;;;;4998917;28;20725;-76
2023/05/27 04:30:32;;;;;;;4.95;3.60;;;20.60;51.10;;;;;;4998425;28;20220;-77
2023/05/27 04:33:01;;;;;;;6.05;3.90;;;20.60;50.90;;;;;;4998744;28;20223;-77
2023/05/27 04:35:30;;;;;;;5.38;3.40;;;20.70;51.50;;;;;;4998255;28;20216;-77
2023/05/27 04:37:58;;;;;;;4.97;3.20;;;20.70;51.50;;;;;;4998511;28;20574;-78
2023/05/27 04:40:31;;;;;;;5.38;3.20;;;20.70;51.50;;;;;;4999366;28;20288;-78
2023/05/27 04:43:16;;;;;;;6.65;3.60;;;20.70;51.20;;;;;;5015981;28;20199;-78
2023/05/27 04:45:45;;;;;;;5.20;3.50;;;20.70;51.30;;;;;;4998757;28;20200;-78
2023/05/27 04:48:12;;;;;;;5.57;3.42;;;20.80;50.80;;;;;;5014758;22;20311;-78
2023/05/27 04:50:40;;;;;;;6.10;3.60;;;20.90;51.20;;;;;;4998400;28;20682;-78
2023/05/27 04:53:08;;;;;;;5.95;3.40;;;21.00;50.80;;;;;;4999689;28;20220;-78
2023/05/27 04:55:36;;;;;;;5.35;3.42;;;21.10;50.40;;;;;;4998701;28;20235;-78
2023/05/27 04:58:05;;;;;;;5.07;3.17;;;21.20;50.30;;;;;;4998698;28;20196;-78
2023/05/27 05:00:49;;;;;;;5.57;3.10;;;21.40;50.20;;;;;;4998516;28;20201;-78
2023/05/27 05:03:21;;;;;;;4.10;3.10;;;21.40;50.20;;;;;;4999377;28;20201;-79
2023/05/27 05:05:51;;;;;;;5.20;3.45;;;21.50;49.80;;;;;;4998400;28;20193;-79
2023/05/27 05:08:18;;;;;;;3.95;2.90;;;21.60;49.90;;;;;;4998354;28;20204;-78
2023/05/27 05:10:47;;;;;;;7.97;3.58;;;21.70;49.60;;;;;;4998116;28;20197;-78
2023/05/27 05:13:14;;;;;;;4.95;3.53;;;21.80;49.60;;;;;;4998374;28;20667;-78
2023/05/27 05:15:43;;;;;;;4.13;3.15;;;21.90;49.60;;;;;;4998591;28;20660;-78
2023/05/27 05:18:10;;;;;;;4.25;2.90;;;22.00;49.10;;;;;;4998774;28;20287;-78
2023/05/27 05:20:39;;;;;;;5.70;3.60;;;22.10;49.90;;;;;;4998938;28;20196;-79
2023/05/27 05:23:09;;;;;;;8.13;3.60;;;22.20;49.40;;;;;;4998927;28;20241;-79
2023/05/27 05:25:37;;;;;;;5.10;3.30;;;22.30;49.10;;;;;;4998350;28;20201;-79
2023/05/27 05:28:06;;;;;;;3.97;2.97;;;22.30;48.90;;;;;;4981610;28;20243;-79
2023/05/27 05:30:33;;;;;;;5.10;3.22;;;22.40;48.70;;;;;;4981986;28;20228;-79
2023/05/27 05:33:00;;;;;;;5.40;3.30;;;22.50;48.60;;;;;;4997492;28;20216;-79
2023/05/27 05:35:31;;;;;;;6.65;3.35;;;22.60;48.70;;;;;;4997696;28;20215;-79
2023/05/27 05:38:14;;;;;;;4.72;2.88;;;22.70;48.80;;;;;;4998589;28;20235;-78
2023/05/27 05:40:41;;;;;;;5.05;3.05;;;22.70;48.50;;;;;;5000233;28;20568;-79
2023/05/27 05:43:16;;;;;;;4.97;2.85;;;22.80;48.40;;;;;;4999548;28;20219;-79
2023/05/27 05:45:43;;;;;;;5.63;3.25;;;22.90;48.30;;;;;;4999325;28;20540;-78
2023/05/27 05:48:10;;;;;;;5.25;3.05;;;23.00;48.20;;;;;;4997759;28;20667;-78
2023/05/27 05:50:40;;;;;;;4.68;3.20;;;23.10;48.00;;;;;;4982477;28;20667;-78
2023/05/27 05:53:08;;;;;;;6.25;3.00;;;23.20;47.90;;;;;;4997770;28;20232;-78
2023/05/27 05:55:37;;;;;;;6.70;3.35;;;23.20;47.50;;;;;;4999031;28;20209;-78
2023/05/27 05:58:04;;;;;;;5.07;3.20;;;23.30;47.20;;;;;;4998482;28;20201;-79
2023/05/27 06:00:31;;;;;;;4.60;2.90;;;23.30;46.90;;;;;;4998148;28;20211;-78
2023/05/27 06:03:19;;;;;;;4.47;2.78;;;23.40;46.70;;;;;;5000943;28;20663;-78
2023/05/27 06:05:49;;;;;;;6.55;3.03;;;23.50;46.60;;;;;;4982087;28;20200;-78
2023/05/27 06:08:17;;;;;;;4.75;3.13;;;23.60;46.40;;;;;;4997837;28;20197;-78
2023/05/27 06:10:52;;;;;;;4.18;2.65;;;23.60;46.30;;;;;;4997698;28;20215;-78
2023/05/27 06:13:20;;;;;;;5.65;3.15;;;23.70;46.20;;;;;;4997448;28;20209;-78
2023/05/27 06:15:49;;;;;;;4.55;2.88;;;23.80;46.10;;;;;;4998063;28;20221;-78
2023/05/27 06:18:17;;;;;;;6.57;3.05;;;23.90;46.10;;;;;;4997848;28;20208;-78
2023/05/27 06:20:44;;;;;;;5.13;3.53;;;24.00;46.00;;;;;;4998078;28;20548;-78
2023/05/27 06:23:11;;;;;;;4.65;3.08;;;24.10;45.90;;;;;;4997825;28;20299;-78
2023/05/27 06:26:05;;;;;;;3.63;2.80;;;24.10;45.50;;;;;;5000724;28;20208;-78
2023/05/27 06:28:38;;;;;;;6.38;3.35;;;24.20;45.50;;;;;;5001254;28;20192;-78
2023/05/27 06:31:05;;;;;;;6.60;3.22;;;24.30;45.40;;;;;;4999287;28;20284;-78
2023/05/27 06:33:32;;;;;;;4.70;2.90;;;24.30;45.20;;;;;;4997935;28;20220;-79
2023/05/27 06:35:59;;;;;;;4.00;2.75;;;24.40;45.20;;;;;;4999080;28;20637;-79
2023/05/27 06:38:27;;;;;;;3.95;2.88;;;24.50;45.00;;;;;;4999103;28;20284;-79
2023/05/27 06:40:56;;;;;;;3.72;2.97;;;24.50;44.80;;;;;;4986584;28;20667;-79
2023/05/27 06:43:25;;;;;;;3.92;2.95;;;24.60;44.90;;;;;;5003144;28;20280;-79
2023/05/27 06:46:17;;;;;;;3.08;2.65;;;24.70;44.70;;;;;;5002409;28;20192;-79
2023/05/27 06:48:54;;;;;;;4.15;2.90;;;24.70;44.40;;;;;;5001585;28;20206;-79
2023/05/27 06:51:23;;;;;;;3.90;3.05;;;24.90;44.40;;;;;;4985394;28;20274;-79
2023/05/27 06:53:50;;;;;;;3.65;3.00;;;24.90;44.20;;;;;;5001976;28;20200;-79
2023/05/27 06:56:26;;;;;;;4.38;2.70;;;24.90;44.20;;;;;;5001436;28;20541;-79
2023/05/27 06:59:33;;;;;;;4.82;2.92;;;25.00;43.90;;;;;;4998849;28;20215;-78
2023/05/27 07:02:00;;;;;;;3.33;2.70;;;25.10;43.80;;;;;;4998904;28;20217;-78
2023/05/27 07:04:28;;;;;;;3.83;3.05;;;25.10;43.50;;;;;;5004176;28;20235;-78
2023/05/27 07:07:00;;;;;;;3.83;2.50;;;25.20;43.50;;;;;;5004811;28;20200;-78
2023/05/27 07:09:27;;;;;;;4.43;2.75;;;25.30;43.40;;;;;;5012201;28;20229;-78
2023/05/27 07:11:54;;;;;;;3.45;2.70;;;25.30;43.80;;;;;;5015254;28;20223;-78
2023/05/27 07:14:41;;;;;;;3.03;2.63;;;25.40;43.10;;;;;;5019046;28;20192;-79
2023/05/27 07:17:10;;;;;;;4.85;2.83;;;25.40;42.90;;;;;;5001241;28;20283;-79
2023/05/27 07:19:37;;;;;;;3.40;3.10;;;25.50;42.90;;;;;;5001741;28;20192;-79
2023/05/27 07:22:08;;;;;;;4.32;3.00;;;25.60;42.80;;;;;;5001804;28;20256;-79
2023/05/27 07:24:35;;;;;;;4.18;2.70;;;25.60;42.60;;;;;;5000924;28;20192;-79
2023/05/27 07:27:04;;;;;;;3.03;2.72;;;25.60;42.50;;;;;;5000726;28;20201;-79
2023/05/27 07:29:34;;;;;;;6.22;2.85;;;25.70;42.40;;;;;;5001621;28;20204;-79
2023/05/27 07:32:23;;;;;;;3.28;2.50;;;25.80;42.30;;;;;;5001015;28;20225;-79
2023/05/27 07:34:51;;;;;;;3.92;2.78;;;25.80;42.20;;;;;;5000733;28;20193;-79
2023/05/27 07:37:18;;;;;;;3.88;2.45;;;25.90;42.10;;;;;;5000325;28;20192;-79
2023/05/27 07:39:45;;;;;;;5.05;3.15;;;25.90;42.00;;;;;;5000210;28;20711;-79
2023/05/27 07:42:16;;;;;;;4.18;3.08;;;25.90;41.90;;;;;;5000991;28;20213;-79
2023/05/27 07:44:43;;;;;;;4.10;2.78;;;25.90;41.80;;;;;;5000677;28;20200;-79
2023/05/27 07:47:10;;;;;;;4.15;2.90;;;26.00;42.40;;;;;;4984207;28;20200;-79
2023/05/27 07:49:39;;;;;;;3.72;2.65;;;26.00;41.60;;;;;;5000787;28;20570;-79
2023/05/27 07:52:29;;;;;;;5.40;3.05;;;26.00;41.50;;;;;;5000402;28;20217;-79
2023/05/27 07:54:57;;;;;;;3.67;2.78;;;26.10;41.40;;;;;;5001117;28;20196;-79
2023/05/27 07:57:25;;;;;;;3.75;2.85;;;26.10;41.30;;;;;;4984453;28;20584;-79
2023/05/27 07:59:54;;;;;;;3.90;3.05;;;26.20;41.40;;;;;;5000675;28;20244;-79
2023/05/27 08:02:25;;;;;;;2.88;2.63;;;26.20;41.40;;;;;;4984911;28;20212;-78
2023/05/27 08:04:54;;;;;;;4.13;2.88;;;26.20;42.00;;;;;;4984203;28;20197;-78
2023/05/27 08:07:25;;;;;;;3.88;2.97;;;26.20;41.30;;;;;;5002036;28;20192;-78
2023/05/27 08:10:11;;;;;;;3.20;2.90;;;26.30;41.20;;;;;;5019396;28;20195;-79
2023/05/27 08:13:17;;;;;;;5.20;2.65;;;26.30;41.10;;;;;;5010951;28;20220;-78
2023/05/27 08:16:02;;;;;;;3.55;2.65;;;26.30;41.10;;;;;;5001652;28;20204;-78
2023/05/27 08:18:50;;;;;;;5.57;2.88;;;26.30;41.00;;;;;;5000177;28;20200;-78
2023/05/27 08:21:26;;;;;;;3.35;2.83;;;26.30;41.00;;;;;;5018771;28;20274;-78
2023/05/27 08:24:12;;;;;;;3.85;2.80;;;26.30;40.90;;;;;;5000799;28;20173;-79
2023/05/27 08:27:05;;;;;;;2.83;2.50;;;26.40;41.00;;;;;;5015961;28;20200;-79
2023/05/27 08:29:43;;;;;;;3.55;2.67;;;26.40;40.90;;;;;;4987337;28;20192;-79
2023/05/27 08:32:24;;;;;;;3.10;2.70;;;26.40;40.90;;;;;;5001042;28;20216;-79
2023/05/27 08:34:51;;;;;;;3.00;2.70;;;26.40;40.80;;;;;;5000646;28;20200;-79
2023/05/27 08:37:20;;;;;;;3.33;2.50;;;26.40;40.80;;;;;;5000403;28;20574;-79
2023/05/27 08:39:48;;;;;;;2.53;2.30;;;26.50;40.80;;;;;;5000694;28;20547;-79
2023/05/27 08:42:26;;;;;;;3.65;2.58;;;26.50;40.70;;;;;;5000275;28;20216;-79
2023/05/27 08:44:54;;;;;;;3.58;2.80;;;26.50;40.70;;;;;;5000473;28;20196;-79
2023/05/27 08:47:21;;;;;;;3.47;2.78;;;26.60;40.70;;;;;;4999787;28;20729;-79
2023/05/27 08:49:48;;;;;;;4.10;2.83;;;26.60;40.70;;;;;;4999990;28;20196;-79
2023/05/27 08:52:17;;;;;;;3.67;2.70;;;26.60;40.60;;;;;;4999762;28;20216;-79
2023/05/27 08:54:45;;;;;;;3.63;2.70;;;26.60;40.50;;;;;;4999701;28;20193;-79
2023/05/27 08:57:13;;;;;;;3.35;2.70;;;26.60;40.40;;;;;;4999629;28;20734;-79
2023/05/27 08:59:40;;;;;;;3.78;2.35;;;26.70;40.40;;;;;;4999850;28;20196;-79
2023/05/27 09:02:11;;;;;;;3.90;2.88;;;26.70;40.40;;;;;;4999003;28;20286;-79
2023/05/27 09:04:38;;;;;;;3.78;2.65;;;26.70;40.30;;;;;;4999649;28;20200;-79
2023/05/27 09:07:06;;;;;;;2.90;2.60;;;26.70;40.30;;;;;;4999533;28;20196;-79
2023/05/27 09:09:32;;;;;;;3.05;2.45;;;26.80;40.30;;;;;;5000157;28;20204;-79
2023/05/27 09:12:02;;;;;;;3.25;2.65;;;26.70;40.30;;;;;;4999290;28;20220;-79
2023/05/27 09:14:29;;;;;;;3.63;2.30;;;26.80;40.30;;;;;;4999306;28;20674;-79
2023/05/27 09:16:56;;;;;;;3.15;2.47;;;26.80;40.30;;;;;;4999158;28;20204;-79
2023/05/27 09:19:23;;;;;;;2.63;2.42;;;26.80;40.30;;;;;;4999637;28;20196;-79
2023/05/27 09:21:52;;;;;;;2.92;2.53;;;26.80;40.30;;;;;;5000620;28;20227;-79
2023/05/27 09:24:19;;;;;;;3.35;2.60;;;26.70;40.20;;;;;;5000594;28;20196;-79
2023/05/27 09:26:46;;;;;;;2.97;2.60;;;26.70;40.20;;;;;;5002013;28;20254;-79
2023/05/27 09:29:15;;;;;;;2.95;2.65;;;26.70;40.30;;;;;;5001461;28;20207;-79
2023/05/27 09:31:42;;;;;;;3.25;2.60;;;26.70;40.30;;;;;;4999791;28;20220;-79
2023/05/27 09:34:13;;;;;;;3.00;2.70;;;26.70;40.40;;;;;;4999401;28;20226;-79
2023/05/27 09:36:44;;;;;;;4.10;2.67;;;26.70;40.50;;;;;;4999135;28;20227;-79
2023/05/27 09:39:12;;;;;;;3.05;2.75;;;26.70;40.50;;;;;;4999227;28;20200;-79
2023/05/27 09:41:39;;;;;;;3.75;2.72;;;26.60;40.50;;;;;;4982777;28;20220;-79
2023/05/27 09:44:07;;;;;;;3.45;2.63;;;26.60;40.50;;;;;;5016068;28;20192;-79
2023/05/27 09:46:35;;;;;;;3.05;2.50;;;26.60;40.50;;;;;;4998805;28;20188;-78
2023/05/27 09:49:03;;;;;;;2.80;2.53;;;26.60;40.60;;;;;;5016287;28;20184;-78
2023/05/27 09:51:33;;;;;;;3.05;2.53;;;26.60;40.60;;;;;;4982120;28;20291;-78
2023/05/27 09:54:00;;;;;;;3.03;2.60;;;26.60;40.70;;;;;;4998293;28;20216;-78
2023/05/27 09:56:28;;;;;;;2.88;2.55;;;26.60;40.80;;;;;;4998564;28;20196;-78
2023/05/27 09:58:55;;;;;;;2.95;2.67;;;26.60;40.80;;;;;;4998378;28;20643;-78
2023/05/27 10:01:23;;;;;;;3.38;2.55;;;26.50;40.80;;;;;;4998173;28;20318;-78
2023/05/27 10:03:52;;;;;;;2.72;2.47;;;26.50;40.90;;;;;;4998019;28;20198;-78
2023/05/27 10:06:19;;;;;;;4.10;2.85;;;26.50;40.90;;;;;;4998195;28;20578;-78
2023/05/27 10:08:46;;;;;;;2.78;2.42;;;26.50;41.00;;;;;;4998877;28;20201;-79
2023/05/27 10:11:13;;;;;;;2.58;2.30;;;26.40;41.00;;;;;;4998374;28;20224;-79
2023/05/27 10:13:40;;;;;;;3.25;2.70;;;26.40;41.10;;;;;;4997486;28;20315;-79
2023/05/27 10:16:07;;;;;;;3.00;2.42;;;26.40;41.20;;;;;;4998114;28;20344;-79
2023/05/27 10:18:34;;;;;;;3.28;2.70;;;26.40;41.20;;;;;;4998297;28;20199;-80
2023/05/27 10:21:05;;;;;;;4.20;2.90;;;26.40;41.40;;;;;;5000185;28;20235;-79
2023/05/27 10:23:33;;;;;;;2.72;2.50;;;26.30;41.40;;;;;;4999474;28;20188;-79
2023/05/27 10:26:02;;;;;;;3.40;2.92;;;26.30;41.40;;;;;;4998929;28;20616;-79
2023/05/27 10:28:31;;;;;;;2.95;2.65;;;26.30;41.40;;;;;;5006949;28;20204;-79
2023/05/27 10:31:05;;;;;;;2.90;2.58;;;26.30;41.40;;;;;;4981385;28;20207;-79
2023/05/27 10:33:32;;;;;;;3.10;2.53;;;26.20;41.40;;;;;;4997273;28;20220;-79
2023/05/27 10:36:07;;;;;;;2.78;2.50;;;26.20;41.50;;;;;;4997742;28;20192;-79
2023/05/27 10:38:35;;;;;;;3.10;2.80;;;26.20;41.70;;;;;;4997209;28;20257;-79
2023/05/27 10:41:03;;;;;;;2.95;2.47;;;26.20;41.70;;;;;;4997246;28;20250;-79
2023/05/27 10:43:31;;;;;;;3.50;2.80;;;26.20;41.80;;;;;;4997013;28;20674;-79
2023/05/27 10:46:05;;;;;;;3.88;2.63;;;26.10;41.80;;;;;;4997384;28;20200;-79
2023/05/27 10:48:34;;;;;;;3.03;2.75;;;26.10;41.90;;;;;;5003563;23;20242;-76
2023/05/27 10:51:01;;;;;;;2.95;2.70;;;26.10;42.00;;;;;;4995886;28;20200;-76
2023/05/27 10:53:30;;;;;;;3.67;3.03;;;26.00;42.00;;;;;;4996429;28;20219;-77
2023/05/27 10:55:59;;;;;;;3.25;2.55;;;26.00;42.10;;;;;;4996396;28;20207;-76
2023/05/27 10:58:26;;;;;;;3.45;2.88;;;25.90;42.20;;;;;;4995773;28;20610;-76
2023/05/27 11:00:53;;;;;;;3.08;2.40;;;25.90;42.30;;;;;;4995707;28;20247;-76
2023/05/27 11:03:22;;;;;;;3.50;2.75;;;25.90;42.40;;;;;;4995885;28;20231;-76
2023/05/27 11:05:58;;;;;;;3.00;2.70;;;25.80;42.60;;;;;;4995884;28;20274;-76
2023/05/27 11:08:26;;;;;;;3.92;2.88;;;25.80;42.70;;;;;;4995855;28;20601;-76
2023/05/27 11:11:02;;;;;;;2.60;2.38;;;25.70;42.80;;;;;;4995884;28;20207;-76
2023/05/27 11:13:33;;;;;;;3.10;2.80;;;25.70;42.90;;;;;;4995835;28;20218;-76
2023/05/27 11:16:01;;;;;;;2.88;2.53;;;25.60;43.00;;;;;;4996359;28;20196;-76
2023/05/27 11:18:38;;;;;;;3.40;2.70;;;25.60;43.10;;;;;;4995819;28;20210;-76
2023/05/27 11:21:05;;;;;;;2.90;2.60;;;25.60;43.30;;;;;;4995821;28;20197;-76
2023/05/27 11:23:37;;;;;;;3.50;2.85;;;25.50;43.30;;;;;;4995972;28;20197;-76
2023/05/27 11:26:05;;;;;;;2.83;2.50;;;25.50;43.40;;;;;;4997245;28;20206;-76
2023/05/27 11:28:33;;;;;;;3.10;2.50;;;25.50;43.40;;;;;;4999617;28;20549;-76
2023/05/27 11:31:03;;;;;;;2.70;2.50;;;25.50;43.40;;;;;;4999626;28;20732;-75
2023/05/27 11:33:33;;;;;;;2.65;2.45;;;25.50;43.40;;;;;;4999782;28;20212;-76
2023/05/27 11:36:05;;;;;;;3.20;2.90;;;25.50;43.50;;;;;;5000003;28;20663;-78
2023/05/27 11:38:39;;;;;;;2.58;2.35;;;25.50;43.60;;;;;;5000035;28;20670;-77
2023/05/27 11:41:11;;;;;;;2.97;2.67;;;25.50;43.60;;;;;;5000542;28;20204;-77
2023/05/27 11:43:47;;;;;;;2.75;2.45;;;25.50;43.50;;;;;;4999745;28;20200;-77
2023/05/27 11:46:14;;;;;;;3.13;2.83;;;25.50;43.60;;;;;;4999438;28;20207;-77
2023/05/27 11:48:41;;;;;;;2.83;2.60;;;25.50;43.60;;;;;;4999657;28;20205;-76
2023/05/27 11:51:08;;;;;;;3.65;2.95;;;25.50;43.60;;;;;;5016766;28;20188;-77
2023/05/27 11:53:36;;;;;;;5.18;2.80;;;25.50;43.20;;;;;;4998924;28;20217;-77
2023/05/27 11:56:03;;;;;;;3.33;2.88;;;25.50;43.30;;;;;;4999142;28;20658;-76
2023/05/27 11:58:32;;;;;;;3.20;2.83;;;25.50;43.40;;;;;;4999023;28;20196;-76
2023/05/27 12:00:58;;;;;;;6.38;2.90;;;25.40;43.50;;;;;;4999019;28;20258;-76
2023/05/27 12:03:25;;;;;;;4.07;3.10;;;25.40;43.70;;;;;;4998717;28;20196;-76
2023/05/27 12:05:52;;;;;;;5.65;3.35;;;25.50;43.50;;;;;;4998593;28;20196;-76
2023/05/27 12:08:20;;;;;;;5.25;3.15;;;25.50;43.10;;;;;;4998687;28;20201;-76
2023/05/27 12:10:50;;;;;;;3.90;3.50;;;25.60;42.70;;;;;;4998395;28;20572;-76
2023/05/27 12:13:17;;;;;;;8.35;4.15;;;25.50;42.40;;;;;;4998453;28;20204;-75
2023/05/27 12:15:45;;;;;;;7.15;3.85;;;25.60;42.40;;;;;;4998377;28;20204;-76
2023/05/27 12:18:13;;;;;;;7.03;4.30;;;25.60;42.20;;;;;;4998280;28;20205;-76
2023/05/27 12:20:40;;;;;;;5.40;4.35;;;25.60;42.10;;;;;;4998753;28;20290;-76
2023/05/27 12:23:07;;;;;;;7.20;4.20;;;25.60;41.70;;;;;;4998262;28;20608;-76
2023/05/27 12:25:34;;;;;;;5.05;3.80;;;25.50;41.70;;;;;;4998584;28;20254;-76
2023/05/27 12:28:01;;;;;;;6.32;4.15;;;25.50;41.70;;;;;;4998241;28;20195;-76
2023/05/27 12:30:28;;;;;;;6.53;4.53;;;25.50;41.60;;;;;;4998419;28;20295;-76
2023/05/27 12:32:58;;;;;;;5.00;4.22;;;25.50;41.40;;;;;;4998003;28;20266;-76
2023/05/27 12:35:26;;;;;;;6.15;4.53;;;25.50;41.40;;;;;;4998516;28;20641;-76
2023/05/27 12:37:53;;;;;;;6.50;3.95;;;25.50;41.60;;;;;;4997845;28;20200;-76
2023/05/27 12:40:20;;;;;;;5.93;3.97;;;25.40;41.50;;;;;;4997994;28;20247;-76
2023/05/27 12:42:47;;;;;;;4.82;3.60;;;25.40;41.60;;;;;;4997794;28;20589;-76
2023/05/27 12:45:15;;;;;;;4.82;4.00;;;25.40;41.60;;;;;;4998125;28;20192;-76
2023/05/27 12:47:42;;;;;;;5.78;4.20;;;25.30;41.30;;;;;;4997892;28;20203;-76
2023/05/27 12:50:11;;;;;;;7.20;4.72;;;25.30;41.40;;;;;;4998337;28;20306;-76
2023/05/27 12:52:38;;;;;;;7.47;4.85;;;25.30;41.40;;;;;;4997613;28;20619;-76
2023/05/27 12:55:06;;;;;;;9.35;4.75;;;25.30;41.10;;;;;;4981379;28;20216;-76
2023/05/27 12:57:33;;;;;;;7.57;4.50;;;25.30;41.00;;;;;;4997470;28;20200;-76
2023/05/27 13:00:00;;;;;;;7.28;4.80;;;25.30;40.80;;;;;;4997660;28;20208;-76